Time;durP1;ratioP1;P1;durP2;ratioP2;P2;SDS_P1;SDS_P2;PMS_P1;PMS_P2;Temp;Humidity;BMP_temperature;BMP_pressure;BME280_temperature;BME280_humidity;BME280_pressure;Samples;Min_cycle;Max_cycle;Signal;HPM_P1;HPM_P2
2021/07/27 00:00:33;;;;;;;5.20;3.72;;;20.70;99.90;;;;;;5072106;28;20481;-69
2021/07/27 00:03:03;;;;;;;4.65;3.50;;;20.80;99.90;;;;;;5072756;28;20087;-70
2021/07/27 00:05:29;;;;;;;5.68;3.00;;;20.80;99.90;;;;;;5054559;28;20020;-72
2021/07/27 00:07:55;;;;;;;5.85;3.05;;;20.70;99.90;;;;;;5072047;28;20113;-71
2021/07/27 00:10:22;;;;;;;3.97;3.20;;;20.70;99.90;;;;;;5053473;28;20044;-71
2021/07/27 00:12:48;;;;;;;5.88;3.30;;;20.70;99.90;;;;;;5072330;28;20549;-71
2021/07/27 00:15:14;;;;;;;3.47;3.10;;;20.80;99.90;;;;;;5053376;28;20029;-70
2021/07/27 00:17:40;;;;;;;3.47;2.88;;;20.70;99.90;;;;;;5054230;28;20103;-71
2021/07/27 00:20:06;;;;;;;5.13;2.90;;;20.70;99.90;;;;;;5053521;28;20086;-70
2021/07/27 00:22:32;;;;;;;5.13;3.55;;;20.70;99.90;;;;;;5054262;28;20052;-71
2021/07/27 00:24:58;;;;;;;3.45;2.95;;;20.60;99.90;;;;;;5054183;28;20076;-71
2021/07/27 00:27:24;;;;;;;5.78;3.55;;;20.60;99.90;;;;;;5071429;28;20021;-70
2021/07/27 00:29:49;;;;;;;3.95;2.50;;;20.70;99.90;;;;;;5071809;28;20093;-70
2021/07/27 00:32:15;;;;;;;3.35;3.05;;;20.80;99.90;;;;;;5053419;28;20071;-70
2021/07/27 00:34:41;;;;;;;3.35;2.22;;;20.80;99.90;;;;;;5053635;28;20420;-72
2021/07/27 00:37:16;;;;;;;7.63;3.15;;;20.80;99.90;;;;;;5053117;28;20474;-70
2021/07/27 00:39:42;;;;;;;5.15;2.90;;;20.70;99.90;;;;;;5054028;28;20033;-71
2021/07/27 00:42:08;;;;;;;4.82;2.80;;;20.70;99.90;;;;;;5071224;28;20154;-72
2021/07/27 00:44:34;;;;;;;3.45;2.63;;;20.70;99.90;;;;;;5071606;28;20071;-70
2021/07/27 00:46:59;;;;;;;5.93;3.25;;;20.70;99.90;;;;;;5070049;28;20024;-72
2021/07/27 00:49:25;;;;;;;5.10;2.88;;;20.70;99.90;;;;;;5064301;28;20056;-70
2021/07/27 00:51:51;;;;;;;3.25;2.58;;;20.60;99.90;;;;;;5051959;28;20025;-71
2021/07/27 00:54:16;;;;;;;3.83;2.67;;;20.50;99.90;;;;;;5034124;28;20025;-71
2021/07/27 00:56:42;;;;;;;4.63;2.67;;;20.50;99.90;;;;;;5033583;28;20496;-71
2021/07/27 00:59:08;;;;;;;4.80;2.67;;;20.50;99.90;;;;;;5051003;28;20095;-70
2021/07/27 01:01:35;;;;;;;4.70;3.50;;;20.60;99.90;;;;;;5033455;28;20028;-72
2021/07/27 01:04:01;;;;;;;3.08;2.70;;;20.40;99.90;;;;;;5051546;28;20032;-72
2021/07/27 01:06:26;;;;;;;4.05;2.92;;;20.40;99.90;;;;;;5050518;28;20029;-71
2021/07/27 01:08:52;;;;;;;4.70;3.00;;;20.40;99.90;;;;;;5051396;28;20235;-71
2021/07/27 01:11:23;;;;;;;5.72;3.00;;;20.20;99.90;;;;;;5050725;28;20037;-70
2021/07/27 01:13:48;;;;;;;3.47;2.92;;;20.20;99.90;;;;;;5033447;28;20359;-72
2021/07/27 01:16:14;;;;;;;4.78;3.05;;;20.10;99.90;;;;;;5050489;28;20025;-70
2021/07/27 01:18:50;;;;;;;3.58;2.67;;;20.10;99.90;;;;;;5033240;28;20084;-71
2021/07/27 01:43:28;;;;;;;4.93;3.60;;;19.80;99.90;;;;;;5050567;28;20040;-71
2021/07/27 01:45:54;;;;;;;3.88;3.17;;;19.80;99.90;;;;;;5051029;28;20066;-70
2021/07/27 01:48:26;;;;;;;3.35;2.58;;;19.60;99.90;;;;;;5032172;28;20024;-71
2021/07/27 01:50:52;;;;;;;4.85;2.83;;;19.70;99.90;;;;;;5033041;28;20116;-70
2021/07/27 01:53:26;;;;;;;3.95;3.00;;;19.70;99.90;;;;;;5050644;28;20068;-69
2021/07/27 01:55:55;;;;;;;4.20;3.33;;;19.80;99.90;;;;;;5033380;28;20029;-70
2021/07/27 01:58:21;;;;;;;4.57;3.00;;;19.90;99.90;;;;;;5032331;28;20330;-70
2021/07/27 02:00:46;;;;;;;4.05;3.38;;;19.80;99.90;;;;;;5032928;28;20022;-70
2021/07/27 02:03:15;;;;;;;7.50;2.92;;;19.80;99.90;;;;;;5050950;28;20522;-70
2021/07/27 02:05:43;;;;;;;3.28;2.97;;;19.90;99.90;;;;;;5050420;28;20036;-70
2021/07/27 02:08:09;;;;;;;4.72;2.80;;;19.80;99.90;;;;;;5050973;28;20053;-69
2021/07/27 02:10:36;;;;;;;3.95;3.20;;;19.80;99.90;;;;;;5055371;28;20044;-71
2021/07/27 02:13:25;;;;;;;4.63;3.05;;;19.80;99.90;;;;;;5036658;28;20111;-71
2021/07/27 02:15:52;;;;;;;3.88;2.67;;;19.60;99.90;;;;;;5036805;28;20036;-70
2021/07/27 02:18:17;;;;;;;3.70;2.70;;;19.60;99.90;;;;;;5053703;28;20107;-70
2021/07/27 02:20:48;;;;;;;7.28;3.22;;;19.60;99.90;;;;;;5036674;28;20114;-71
2021/07/27 02:23:14;;;;;;;30.57;5.33;;;19.70;99.90;;;;;;5053518;28;20053;-70
2021/07/27 02:25:40;;;;;;;5.97;3.53;;;19.70;99.90;;;;;;5036346;28;20029;-71
2021/07/27 02:28:11;;;;;;;4.15;3.50;;;19.70;99.90;;;;;;5036172;28;20047;-71
2021/07/27 02:30:40;;;;;;;5.05;3.20;;;19.70;99.90;;;;;;5036615;28;20033;-71
2021/07/27 02:33:06;;;;;;;4.28;3.38;;;19.70;99.90;;;;;;5036153;28;20075;-71
2021/07/27 02:35:41;;;;;;;5.00;3.05;;;19.80;99.90;;;;;;5053078;28;20033;-71
2021/07/27 02:38:06;;;;;;;5.25;2.75;;;19.90;99.90;;;;;;5052755;28;20067;-71
2021/07/27 02:40:33;;;;;;;4.93;3.10;;;19.90;99.90;;;;;;5035251;28;20064;-71
2021/07/27 02:43:02;;;;;;;5.78;3.38;;;19.90;99.90;;;;;;5054394;28;20025;-71
2021/07/27 02:45:27;;;;;;;5.80;3.05;;;20.00;99.90;;;;;;5035210;28;20091;-70
2021/07/27 02:47:53;;;;;;;4.20;2.85;;;20.00;99.90;;;;;;5053987;28;20029;-71
2021/07/27 02:50:19;;;;;;;3.55;3.10;;;20.10;99.90;;;;;;5053190;28;20071;-71
2021/07/27 02:52:44;;;;;;;6.57;3.47;;;20.10;99.90;;;;;;5053641;28;20033;-71
2021/07/27 02:55:11;;;;;;;3.72;3.05;;;20.10;99.90;;;;;;5053334;28;20076;-69
2021/07/27 02:57:37;;;;;;;5.03;2.97;;;20.10;99.90;;;;;;5035785;28;20086;-69
2021/07/27 03:00:04;;;;;;;5.75;3.13;;;20.10;99.90;;;;;;5053617;28;20041;-69
2021/07/27 03:02:31;;;;;;;5.30;3.58;;;20.10;99.90;;;;;;5051337;28;20021;-69
2021/07/27 03:04:57;;;;;;;5.45;2.95;;;20.20;99.90;;;;;;5035958;28;20350;-70
2021/07/27 03:07:32;;;;;;;4.25;3.22;;;20.10;99.90;;;;;;5042708;28;20040;-70
2021/07/27 03:12:42;;;;;;;13.18;4.05;;;19.80;99.90;;;;;;5074009;28;20269;-70
2021/07/27 03:15:08;;;;;;;4.97;3.95;;;19.60;99.90;;;;;;5073470;28;20071;-71
2021/07/27 03:17:34;;;;;;;5.13;3.05;;;19.60;99.90;;;;;;5072124;28;20477;-71
2021/07/27 03:20:03;;;;;;;5.75;4.38;;;19.50;99.90;;;;;;5073651;28;20056;-69
2021/07/27 03:22:29;;;;;;;5.80;4.03;;;19.40;99.90;;;;;;5071008;28;20056;-69
2021/07/27 03:24:54;;;;;;;6.07;4.00;;;19.40;99.90;;;;;;5072968;28;20055;-71
2021/07/27 03:27:20;;;;;;;6.60;4.13;;;19.40;99.90;;;;;;5071355;28;20032;-69
2021/07/27 03:29:45;;;;;;;5.75;3.47;;;19.30;99.90;;;;;;5073118;28;20028;-71
2021/07/27 03:32:11;;;;;;;6.28;3.90;;;19.30;99.90;;;;;;5073398;28;20033;-71
2021/07/27 03:34:37;;;;;;;6.72;4.13;;;19.40;99.90;;;;;;5070962;28;20024;-70
2021/07/27 03:37:02;;;;;;;4.68;3.58;;;19.40;99.90;;;;;;5072712;28;20060;-69
2021/07/27 03:39:29;;;;;;;6.35;3.90;;;19.30;99.90;;;;;;5070959;28;20109;-70
2021/07/27 03:41:54;;;;;;;6.18;3.95;;;19.40;99.90;;;;;;5072871;28;20086;-70
2021/07/27 03:44:20;;;;;;;7.70;3.38;;;19.40;99.90;;;;;;5071061;28;20040;-69
2021/07/27 03:46:45;;;;;;;9.32;3.88;;;19.40;99.90;;;;;;5072488;28;20466;-70
2021/07/27 03:49:11;;;;;;;5.18;4.05;;;19.50;99.90;;;;;;5072526;28;20376;-70
2021/07/27 03:51:37;;;;;;;5.25;3.50;;;19.40;99.90;;;;;;5070593;28;20082;-71
2021/07/27 03:54:03;;;;;;;4.43;3.50;;;19.40;99.90;;;;;;5071368;28;20539;-70
2021/07/27 03:56:28;;;;;;;4.82;3.60;;;19.30;99.90;;;;;;5071740;28;20112;-70
2021/07/27 03:58:55;;;;;;;6.55;3.78;;;19.30;99.90;;;;;;5072119;28;20056;-70
2021/07/27 04:01:20;;;;;;;5.18;3.75;;;19.30;99.90;;;;;;5071757;28;20027;-71
2021/07/27 04:03:46;;;;;;;5.38;3.83;;;19.30;99.90;;;;;;5070703;28;20028;-72
2021/07/27 04:06:13;;;;;;;5.82;4.28;;;19.20;99.90;;;;;;5070648;28;20021;-70
2021/07/27 04:08:39;;;;;;;7.00;3.92;;;19.30;99.90;;;;;;5055231;28;20109;-70
2021/07/27 04:11:05;;;;;;;6.57;3.70;;;19.30;99.90;;;;;;5052112;28;20391;-69
2021/07/27 04:13:32;;;;;;;6.80;4.20;;;19.30;99.90;;;;;;5051452;28;20094;-70
2021/07/27 04:16:00;;;;;;;9.13;3.63;;;19.40;99.90;;;;;;5052678;28;20457;-70
2021/07/27 04:18:25;;;;;;;4.43;3.45;;;19.50;99.90;;;;;;5051018;28;20048;-69
2021/07/27 04:20:55;;;;;;;6.03;3.53;;;19.50;99.90;;;;;;5033995;28;20029;-71
2021/07/27 04:23:21;;;;;;;5.25;3.63;;;19.60;99.90;;;;;;5050104;28;20056;-70
2021/07/27 04:25:46;;;;;;;8.60;4.05;;;19.70;99.90;;;;;;5034247;28;20485;-72
2021/07/27 04:28:12;;;;;;;11.27;3.75;;;19.70;99.90;;;;;;5051958;28;20454;-70
2021/07/27 04:30:37;;;;;;;7.28;4.30;;;19.60;99.90;;;;;;5032281;28;20179;-72
2021/07/27 04:33:04;;;;;;;11.38;4.47;;;19.70;99.90;;;;;;5033779;28;20079;-70
2021/07/27 04:35:30;;;;;;;7.55;4.10;;;19.70;99.90;;;;;;5050657;28;20489;-70
2021/07/27 04:37:57;;;;;;;5.75;4.15;;;19.50;99.90;;;;;;5033649;28;20060;-70
2021/07/27 04:40:23;;;;;;;7.95;4.03;;;19.50;99.90;;;;;;5051111;28;20044;-70
2021/07/27 04:42:49;;;;;;;5.93;4.03;;;19.40;99.90;;;;;;5051911;28;20144;-70
2021/07/27 04:45:15;;;;;;;8.35;4.35;;;19.50;99.90;;;;;;5033980;28;20128;-72
2021/07/27 04:47:40;;;;;;;5.10;4.05;;;19.30;99.90;;;;;;5051206;28;20132;-71
2021/07/27 04:50:07;;;;;;;7.03;4.35;;;19.30;99.90;;;;;;5051286;28;20032;-71
2021/07/27 04:52:33;;;;;;;6.10;4.60;;;19.40;99.90;;;;;;5032750;28;20029;-71
2021/07/27 04:55:00;;;;;;;7.03;4.78;;;19.50;99.90;;;;;;5038358;28;20116;-71
2021/07/27 04:57:26;;;;;;;6.82;4.22;;;19.70;99.90;;;;;;5038620;28;20039;-71
2021/07/27 04:59:52;;;;;;;5.45;4.68;;;19.70;99.90;;;;;;5037214;28;20029;-71
2021/07/27 05:02:18;;;;;;;7.40;4.53;;;19.60;99.90;;;;;;5052876;28;20029;-68
2021/07/27 05:04:45;;;;;;;9.93;4.22;;;19.60;99.90;;;;;;5035852;28;20500;-71
2021/07/27 05:07:10;;;;;;;6.75;5.35;;;19.60;99.90;;;;;;5052906;28;20049;-70
2021/07/27 05:09:36;;;;;;;9.13;4.60;;;19.60;99.90;;;;;;5034701;28;20465;-69
2021/07/27 05:12:02;;;;;;;7.13;5.05;;;19.70;99.90;;;;;;5033097;28;20407;-69
2021/07/27 05:14:29;;;;;;;8.90;5.35;;;19.50;99.90;;;;;;5033158;28;20063;-71
2021/07/27 05:16:55;;;;;;;6.85;5.07;;;19.60;99.90;;;;;;5033183;28;20300;-70
2021/07/27 05:19:22;;;;;;;10.70;5.15;;;19.50;99.90;;;;;;5032289;28;20040;-68
2021/07/27 05:21:50;;;;;;;5.93;4.72;;;19.40;99.90;;;;;;5033029;28;20359;-70
2021/07/27 05:24:15;;;;;;;8.40;5.90;;;19.30;99.90;;;;;;5050720;28;20040;-71
2021/07/27 05:26:41;;;;;;;9.00;4.65;;;19.40;99.90;;;;;;5032454;28;20025;-69
2021/07/27 05:29:06;;;;;;;7.90;4.85;;;19.30;99.90;;;;;;5051136;28;20056;-70
2021/07/27 05:31:32;;;;;;;7.82;4.70;;;19.50;99.90;;;;;;5032637;28;20125;-68
2021/07/27 05:33:58;;;;;;;5.68;4.38;;;19.50;99.90;;;;;;5050590;28;20454;-69
2021/07/27 05:36:23;;;;;;;6.60;4.22;;;19.60;99.90;;;;;;5050149;28;20025;-70
2021/07/27 05:38:51;;;;;;;6.65;5.28;;;19.80;99.90;;;;;;5051259;28;20457;-70
2021/07/27 05:41:16;;;;;;;7.28;4.60;;;19.70;99.90;;;;;;5051519;28;20055;-70
2021/07/27 05:43:44;;;;;;;8.88;4.90;;;19.90;99.90;;;;;;5036423;28;20402;-69
2021/07/27 05:46:09;;;;;;;7.13;4.40;;;20.00;99.90;;;;;;5065067;28;20112;-70
2021/07/27 05:48:35;;;;;;;7.13;4.70;;;20.00;99.90;;;;;;5074597;28;20442;-71
2021/07/27 05:51:03;;;;;;;7.53;5.43;;;20.10;99.90;;;;;;5056149;28;20024;-71
2021/07/27 05:53:29;;;;;;;8.80;4.13;;;20.10;99.90;;;;;;5056153;28;20067;-70
2021/07/27 05:55:57;;;;;;;6.18;3.38;;;20.10;99.90;;;;;;5055879;28;20070;-69
2021/07/27 05:58:23;;;;;;;8.57;4.43;;;20.70;99.90;;;;;;5043638;28;20439;-68
2021/07/27 06:00:49;;;;;;;8.88;4.18;;;20.70;99.90;;;;;;5063986;28;20048;-68
2021/07/27 06:03:14;;;;;;;5.07;4.47;;;20.80;99.90;;;;;;5053315;28;20031;-68
2021/07/27 06:05:40;;;;;;;8.70;4.32;;;20.90;99.90;;;;;;5052152;28;20275;-68
2021/07/27 06:08:06;;;;;;;7.00;4.53;;;20.50;99.90;;;;;;5052404;28;20053;-70
2021/07/27 06:10:32;;;;;;;6.97;4.53;;;20.20;99.90;;;;;;5034023;28;20060;-71
2021/07/27 06:12:58;;;;;;;6.90;4.70;;;20.00;99.90;;;;;;5034699;28;20029;-71
2021/07/27 06:15:23;;;;;;;6.80;4.60;;;20.00;99.90;;;;;;5033750;28;20433;-70
2021/07/27 06:17:49;;;;;;;7.85;4.30;;;20.10;99.90;;;;;;5051762;28;20029;-70
2021/07/27 06:20:15;;;;;;;8.52;4.32;;;20.20;99.90;;;;;;5051909;28;20100;-50
2021/07/27 06:22:41;;;;;;;5.63;3.95;;;20.30;99.90;;;;;;5040318;28;20311;-48
2021/07/27 06:25:10;;;;;;;6.07;4.60;;;20.60;99.90;;;;;;5053989;28;20044;-49
2021/07/27 06:27:36;;;;;;;7.38;4.47;;;20.70;99.90;;;;;;5053882;28;20430;-48
2021/07/27 06:30:02;;;;;;;8.20;5.13;;;20.80;99.90;;;;;;5054170;28;20040;-48
2021/07/27 06:32:28;;;;;;;10.60;5.03;;;20.90;99.90;;;;;;5071477;28;20075;-49
2021/07/27 06:34:54;;;;;;;7.10;4.35;;;21.00;99.90;;;;;;5042195;28;20028;-49
2021/07/27 06:37:19;;;;;;;5.60;3.90;;;21.00;99.90;;;;;;5052371;28;20397;-48
2021/07/27 06:39:45;;;;;;;7.63;4.68;;;21.10;99.90;;;;;;5053918;28;20061;-48
2021/07/27 06:42:10;;;;;;;9.80;4.30;;;21.30;99.90;;;;;;5053847;28;20036;-56
2021/07/27 06:44:36;;;;;;;12.50;4.00;;;21.30;99.90;;;;;;5051979;28;20021;-51
2021/07/27 06:47:02;;;;;;;10.57;4.30;;;21.40;99.90;;;;;;5035164;28;20025;-54
2021/07/27 06:49:28;;;;;;;6.10;4.13;;;21.70;99.90;;;;;;5034447;28;20409;-51
2021/07/27 06:51:54;;;;;;;5.43;4.15;;;21.80;99.90;;;;;;5052984;28;20044;-48
2021/07/27 06:54:20;;;;;;;6.97;4.75;;;21.80;99.90;;;;;;5051777;28;20182;-48
2021/07/27 06:56:45;;;;;;;9.75;4.82;;;21.50;99.90;;;;;;5052041;28;20096;-48
